Time;durP1;ratioP1;P1;durP2;ratioP2;P2;SDS_P1;SDS_P2;PMS_P1;PMS_P2;Temp;Humidity;BMP_temperature;BMP_pressure;BME280_temperature;BME280_humidity;BME280_pressure;Samples;Min_cycle;Max_cycle;Signal;HPM_P1;HPM_P2
2021/06/19 00:00:18;;;;;;;18.63;6.38;;;22.10;99.90;;;21.20;73.54;97408.94;5048613;28;20040;-65
2021/06/19 00:03:07;;;;;;;12.82;6.05;;;22.10;99.90;;;21.22;73.65;97411.47;5047489;28;20037;-65
2021/06/19 00:05:55;;;;;;;8.93;5.75;;;22.10;99.90;;;21.25;73.14;97414.66;5043520;28;20163;-65
2021/06/19 00:08:42;;;;;;;10.07;5.40;;;22.10;99.90;;;21.35;72.91;97416.47;5041072;28;20037;-65
2021/06/19 00:11:29;;;;;;;10.27;5.88;;;22.00;99.90;;;21.36;72.78;97420.81;5057732;28;20157;-65
2021/06/19 00:14:17;;;;;;;8.60;6.05;;;22.00;99.90;;;21.13;73.76;97430.75;5049528;28;20079;-65
2021/06/19 00:17:06;;;;;;;11.40;5.72;;;22.00;99.90;;;21.21;73.39;97420.34;5048336;28;20052;-65
2021/06/19 00:19:53;;;;;;;14.30;5.93;;;22.00;99.90;;;21.38;72.47;97422.31;5049812;28;20147;-65
2021/06/19 00:22:41;;;;;;;10.27;5.60;;;22.00;99.90;;;21.37;72.60;97422.47;5057887;28;20408;-65
2021/06/19 00:25:30;;;;;;;14.60;5.93;;;22.00;99.90;;;21.36;72.82;97421.63;5065821;28;20393;-65
2021/06/19 00:28:17;;;;;;;9.60;5.70;;;21.90;99.90;;;21.60;71.08;97423.91;5043064;28;20037;-65
2021/06/19 00:31:05;;;;;;;10.02;6.00;;;22.00;99.90;;;21.60;71.55;97436.28;5049563;28;20052;-65
2021/06/19 00:33:52;;;;;;;12.27;5.97;;;22.10;99.90;;;21.36;73.05;97434.00;5063171;28;20040;-65
2021/06/19 00:36:40;;;;;;;9.70;5.60;;;22.10;99.90;;;21.15;74.01;97444.66;5062369;28;20056;-65
2021/06/19 00:39:28;;;;;;;10.63;5.38;;;21.90;99.90;;;21.33;72.86;97436.94;5047749;28;20048;-65
2021/06/19 00:42:20;;;;;;;11.82;5.97;;;21.80;99.90;;;21.42;72.39;97444.88;5049289;28;20060;-65
2021/06/19 00:45:08;;;;;;;9.00;5.35;;;21.80;99.90;;;21.35;72.59;97440.22;5041369;28;20110;-65
2021/06/19 00:47:55;;;;;;;14.15;5.75;;;21.80;99.90;;;21.11;73.78;97449.34;5039909;28;20126;-65
2021/06/19 00:50:43;;;;;;;11.98;5.80;;;21.70;99.90;;;20.90;74.97;97444.16;5047294;28;20106;-65
2021/06/19 00:53:32;;;;;;;10.95;5.80;;;21.60;99.90;;;20.73;75.66;97457.94;5048105;28;20057;-65
2021/06/19 00:56:20;;;;;;;13.70;6.15;;;21.60;99.90;;;20.82;74.95;97452.75;5047019;28;20053;-65
2021/06/19 00:59:09;;;;;;;13.77;6.25;;;21.50;99.90;;;21.23;73.13;97445.66;5038229;28;20049;-65
2021/06/19 01:01:56;;;;;;;11.07;6.22;;;21.50;99.90;;;21.25;72.44;97443.69;5047055;28;20041;-65
2021/06/19 01:04:43;;;;;;;16.42;6.22;;;21.60;99.90;;;21.29;71.88;97431.91;5044268;28;20076;-65
2021/06/19 01:07:31;;;;;;;10.23;4.65;;;21.80;99.90;;;21.40;69.92;97438.91;5032083;28;20091;-65
2021/06/19 01:10:18;;;;;;;8.93;4.55;;;21.90;99.90;;;21.41;69.83;97451.13;5044643;28;20037;-65
2021/06/19 01:13:06;;;;;;;8.25;3.72;;;21.90;99.90;;;21.54;67.38;97442.13;5040109;28;20387;-65
2021/06/19 01:15:54;;;;;;;8.85;3.40;;;21.90;99.90;;;21.66;65.94;97444.47;5029774;28;20049;-65
2021/06/19 01:18:56;;;;;;;8.32;2.60;;;22.10;99.90;;;21.85;64.63;97448.09;5047005;28;20120;-65
2021/06/19 01:21:44;;;;;;;10.02;2.58;;;22.10;99.90;;;21.81;64.23;97452.00;5043574;28;20536;-65
2021/06/19 01:24:33;;;;;;;8.25;2.67;;;22.20;99.90;;;21.96;63.04;97460.34;5048623;28;20470;-65
2021/06/19 01:27:20;;;;;;;12.68;2.40;;;22.30;99.90;;;21.87;63.11;97454.94;5039181;28;20049;-65
2021/06/19 01:30:08;;;;;;;7.78;2.35;;;22.30;99.90;;;21.97;62.66;97456.75;5050002;28;20107;-65
2021/06/19 01:32:56;;;;;;;7.05;2.10;;;22.40;99.90;;;22.04;62.65;97461.31;5051421;28;20071;-65
2021/06/19 01:35:44;;;;;;;9.90;2.70;;;22.40;99.90;;;21.96;62.60;97455.88;5048074;28;20143;-65
2021/06/19 01:38:32;;;;;;;5.13;2.10;;;22.40;99.90;;;21.91;62.83;97452.84;5036953;28;20131;-65
2021/06/19 01:41:25;;;;;;;7.53;2.28;;;22.40;99.90;;;21.96;61.80;97455.88;5044827;28;20041;-65
2021/06/19 01:44:12;;;;;;;10.77;2.50;;;22.40;99.90;;;21.92;61.71;97460.63;5047523;28;20040;-65
2021/06/19 01:47:00;;;;;;;6.72;2.47;;;22.40;99.90;;;21.84;62.01;97459.66;5035578;28;20286;-65
2021/06/19 01:49:47;;;;;;;6.22;1.92;;;22.40;99.90;;;21.83;61.88;97455.34;5050684;28;20037;-65
2021/06/19 01:52:35;;;;;;;6.30;1.73;;;22.30;99.90;;;21.76;61.72;97448.94;5042850;28;20034;-65
2021/06/19 01:55:23;;;;;;;7.10;2.03;;;22.30;99.90;;;21.74;61.68;97449.09;5052942;28;20528;-65
2021/06/19 01:58:11;;;;;;;13.65;2.28;;;22.30;99.90;;;21.57;62.66;97442.66;5057567;28;20103;-65
2021/06/19 02:00:58;;;;;;;5.00;1.75;;;22.30;99.90;;;21.60;62.07;97429.22;5057012;28;20040;-65
2021/06/19 02:03:48;;;;;;;7.60;2.30;;;22.20;99.90;;;21.49;62.93;97427.53;5050869;28;20049;-65
2021/06/19 02:06:35;;;;;;;9.88;2.40;;;22.20;99.90;;;21.57;62.11;97431.28;5050755;28;20517;-65
2021/06/19 02:09:23;;;;;;;6.32;2.13;;;22.10;99.90;;;21.66;62.45;97426.00;5036809;28;20081;-65
2021/06/19 02:12:10;;;;;;;3.58;2.08;;;22.10;99.90;;;21.50;63.30;97423.06;5049713;28;20041;-65
2021/06/19 02:14:58;;;;;;;7.03;2.17;;;22.00;99.90;;;21.63;63.08;97421.00;5049394;28;20477;-65
2021/06/19 02:17:45;;;;;;;6.93;2.22;;;22.00;99.90;;;21.33;64.52;97423.72;5049048;28;20163;-65
2021/06/19 02:20:34;;;;;;;10.07;2.97;;;21.90;99.90;;;21.03;65.96;97428.94;5040669;28;20080;-65
2021/06/19 02:23:24;;;;;;;7.07;2.53;;;21.70;99.90;;;21.02;66.16;97424.59;5032789;28;20083;-65
2021/06/19 02:26:11;;;;;;;8.48;2.85;;;21.60;99.90;;;21.02;66.69;97424.59;5046560;28;20527;-65
2021/06/19 02:28:58;;;;;;;7.63;2.85;;;21.40;99.90;;;20.93;66.87;97421.94;5042649;28;20187;-65
2021/06/19 02:31:45;;;;;;;6.70;3.38;;;21.30;99.90;;;20.56;68.97;97435.66;5041156;28;20072;-65
2021/06/19 02:34:35;;;;;;;7.28;3.15;;;21.30;99.90;;;20.02;71.31;97438.34;5045982;28;20387;-65
2021/06/19 02:37:22;;;;;;;7.47;3.30;;;21.20;99.90;;;19.93;71.86;97440.94;5047781;28;20151;-65
2021/06/19 02:40:10;;;;;;;9.68;3.67;;;21.10;99.90;;;19.84;72.88;97434.63;5047390;28;20175;-65
2021/06/19 02:42:59;;;;;;;7.00;3.70;;;20.80;99.90;;;20.24;71.48;97439.22;5036883;28;20045;-65
2021/06/19 02:45:48;;;;;;;10.02;4.68;;;20.70;99.90;;;20.32;71.42;97433.28;5027405;28;20128;-65
2021/06/19 02:48:35;;;;;;;7.75;4.00;;;20.60;99.90;;;20.09;72.62;97438.69;5043337;28;20134;-65
2021/06/19 02:51:23;;;;;;;11.38;4.55;;;20.50;99.90;;;20.23;72.22;97437.53;5042686;28;20041;-65
2021/06/19 02:54:10;;;;;;;10.27;4.65;;;20.50;99.90;;;20.19;72.07;97433.50;5050696;28;20586;-65
2021/06/19 02:56:57;;;;;;;8.93;4.05;;;20.50;99.90;;;20.34;72.03;97444.53;5050035;28;20416;-65
2021/06/19 02:59:45;;;;;;;12.27;4.53;;;20.60;99.90;;;20.18;72.71;97448.44;5048083;28;20088;-65
2021/06/19 03:02:32;;;;;;;11.73;4.38;;;20.60;99.90;;;20.22;72.50;97446.41;5042884;28;20195;-65
2021/06/19 03:05:23;;;;;;;8.95;4.68;;;20.50;99.90;;;20.10;73.25;97448.28;5049283;28;20045;-65
2021/06/19 03:08:11;;;;;;;14.13;5.63;;;20.60;99.90;;;20.08;72.89;97438.84;5049297;28;20429;-65
2021/06/19 03:10:58;;;;;;;11.45;5.30;;;20.60;99.90;;;19.63;75.53;97450.34;5048901;28;20091;-65
2021/06/19 03:13:45;;;;;;;13.77;5.88;;;20.70;99.90;;;19.50;76.57;97453.16;5048945;28;20106;-65
2021/06/19 03:16:35;;;;;;;11.07;5.53;;;20.50;99.90;;;19.36;77.17;97469.22;5042831;28;20056;-65
2021/06/19 03:19:22;;;;;;;11.70;5.15;;;20.30;99.90;;;19.28;77.63;97469.00;5048423;28;20119;-65
2021/06/19 03:22:10;;;;;;;12.38;4.97;;;20.20;99.90;;;19.21;77.85;97473.91;5049726;28;20079;-65
2021/06/19 03:24:57;;;;;;;12.73;5.22;;;20.10;99.90;;;19.37;76.99;97461.19;5050650;28;20041;-65
2021/06/19 03:27:45;;;;;;;11.00;4.90;;;20.10;99.90;;;19.37;77.29;97468.28;5054060;28;20073;-65
2021/06/19 03:30:41;;;;;;;11.32;5.30;;;20.00;99.90;;;19.42;76.97;97468.72;5036674;28;20145;-65
2021/06/19 03:33:28;;;;;;;10.00;5.15;;;20.00;99.90;;;19.42;77.30;97466.09;5036777;28;20037;-65
2021/06/19 03:36:15;;;;;;;12.70;5.35;;;19.90;99.90;;;19.10;78.82;97481.81;5048953;28;20465;-65
2021/06/19 03:39:04;;;;;;;9.80;5.45;;;19.80;99.90;;;19.01;79.31;97478.13;5040916;28;20046;-65
2021/06/19 03:41:51;;;;;;;12.10;5.50;;;19.90;99.90;;;19.07;78.90;97482.03;5047134;28;20497;-65
2021/06/19 03:44:38;;;;;;;12.50;5.50;;;19.90;99.90;;;18.97;79.42;97487.19;5040371;28;20033;-65
2021/06/19 03:47:25;;;;;;;10.98;5.78;;;20.00;99.90;;;18.95;79.21;97484.72;5044617;28;20041;-65
2021/06/19 03:50:17;;;;;;;10.82;5.57;;;20.00;99.90;;;19.06;78.66;97483.84;5040498;28;20409;-65
2021/06/19 03:53:11;;;;;;;13.20;5.32;;;19.90;99.90;;;18.90;79.17;97486.00;5047833;28;20037;-65
2021/06/19 03:55:58;;;;;;;11.13;5.05;;;20.00;99.90;;;18.97;78.90;97490.66;5049154;28;20076;-65
2021/06/19 03:58:45;;;;;;;10.43;5.55;;;19.90;99.90;;;18.95;78.94;97489.09;5035712;28;20069;-65
2021/06/19 04:01:33;;;;;;;11.70;4.63;;;20.00;99.90;;;19.10;78.06;97497.59;5035778;28;20068;-65
2021/06/19 04:04:20;;;;;;;12.00;5.18;;;19.90;99.90;;;19.05;78.30;97503.22;5030628;28;20046;-65
2021/06/19 04:07:07;;;;;;;9.70;4.70;;;20.00;99.90;;;19.21;77.41;97506.31;5030038;28;20042;-65
2021/06/19 04:09:55;;;;;;;12.07;4.55;;;20.00;99.90;;;19.19;77.46;97494.25;5043549;28;20099;-65
2021/06/19 04:12:44;;;;;;;8.38;4.88;;;20.00;99.90;;;19.20;77.39;97501.19;5045035;28;20104;-65
2021/06/19 04:15:31;;;;;;;7.30;4.13;;;20.10;99.90;;;19.35;76.55;97496.50;5049125;28;20072;-65
2021/06/19 04:18:19;;;;;;;8.30;4.57;;;20.20;99.90;;;19.59;75.36;97501.59;5030966;28;20131;-65
2021/06/19 04:21:07;;;;;;;8.55;4.47;;;20.30;99.90;;;19.44;76.11;97501.03;5030908;28;20511;-65
2021/06/19 04:23:55;;;;;;;8.02;4.85;;;20.30;99.90;;;19.50;75.53;97504.97;5037275;28;20037;-65
2021/06/19 04:26:42;;;;;;;8.30;3.92;;;20.30;99.90;;;19.70;74.45;97498.97;5029445;28;20494;-65
2021/06/19 04:29:32;;;;;;;7.65;3.20;;;20.40;99.90;;;20.03;72.96;97505.91;5045983;28;20409;-65
2021/06/19 04:32:19;;;;;;;7.80;3.00;;;20.50;99.90;;;20.14;72.49;97510.31;5047387;28;20040;-65
2021/06/19 04:35:08;;;;;;;7.22;3.30;;;20.70;99.90;;;20.36;71.34;97519.88;5047959;28;20536;-65
2021/06/19 04:37:55;;;;;;;8.55;2.72;;;20.90;99.90;;;20.51;70.43;97514.31;5050054;28;20163;-67
2021/06/19 04:43:39;;;;;;;7.00;2.72;;;21.20;99.90;;;20.46;69.88;97515.53;5031389;28;20046;-65
2021/06/19 04:46:26;;;;;;;5.63;2.58;;;21.30;99.90;;;19.94;71.42;97519.00;5047975;28;20362;-65
2021/06/19 04:49:14;;;;;;;5.38;2.00;;;21.10;99.90;;;20.41;70.00;97523.00;5049423;28;20044;-65
2021/06/19 04:52:02;;;;;;;7.57;2.45;;;21.00;99.90;;;20.47;69.57;97519.81;5044771;28;20099;-65
2021/06/19 04:54:53;;;;;;;5.43;2.10;;;21.00;99.90;;;20.34;69.99;97527.09;5046335;28;20044;-65
2021/06/19 04:57:42;;;;;;;5.63;2.38;;;21.10;99.90;;;20.49;69.55;97527.63;5035495;28;20046;-65
2021/06/19 05:00:29;;;;;;;5.10;2.28;;;21.10;99.90;;;20.41;69.49;97527.41;5038070;28;20076;-65
2021/06/19 05:03:18;;;;;;;2.97;1.70;;;21.30;99.90;;;20.77;69.03;97526.13;5049645;28;20492;-65
2021/06/19 05:06:05;;;;;;;6.03;1.90;;;21.50;99.90;;;20.66;68.65;97527.06;5047519;28;20068;-65
2021/06/19 05:08:52;;;;;;;5.28;2.00;;;21.70;99.90;;;20.78;68.76;97527.84;5043395;28;20117;-65
2021/06/19 05:11:40;;;;;;;3.20;1.73;;;21.60;99.90;;;20.75;68.40;97521.97;5050755;28;20052;-65
2021/06/19 05:14:28;;;;;;;3.15;1.67;;;21.60;99.90;;;21.16;67.62;97520.22;5045760;28;20389;-66
2021/06/19 05:17:15;;;;;;;4.60;1.70;;;21.80;99.90;;;21.24;67.52;97525.69;5050238;28;20048;-65
2021/06/19 05:20:04;;;;;;;3.72;1.70;;;22.00;99.90;;;21.47;66.51;97524.53;5039942;28;20127;-64
2021/06/19 05:22:51;;;;;;;6.47;2.15;;;22.10;99.90;;;21.31;66.62;97525.00;5046246;28;20420;-64
2021/06/19 05:25:38;;;;;;;5.97;2.13;;;22.30;99.90;;;21.24;66.95;97517.75;5043721;28;20101;-64
2021/06/19 05:28:26;;;;;;;8.00;2.25;;;22.30;99.90;;;21.10;66.98;97534.78;5047116;28;20390;-65
2021/06/19 05:31:13;;;;;;;5.40;2.05;;;22.20;99.90;;;21.19;67.16;97526.06;5050685;28;20045;-65
2021/06/19 05:34:00;;;;;;;5.32;2.25;;;22.10;99.90;;;20.96;67.71;97527.22;5052907;28;20048;-65
2021/06/19 05:36:48;;;;;;;3.95;1.60;;;22.20;99.90;;;20.83;67.66;97530.06;5051347;28;20421;-65
2021/06/19 05:39:36;;;;;;;6.28;2.00;;;22.10;99.90;;;21.21;66.59;97520.66;5051256;28;20041;-65
2021/06/19 05:42:23;;;;;;;6.90;2.25;;;22.00;99.90;;;20.89;68.02;97529.53;5050962;28;20159;-65
2021/06/19 05:45:11;;;;;;;5.13;2.13;;;22.00;99.90;;;20.94;68.02;97530.00;5050519;28;20572;-65
2021/06/19 05:47:58;;;;;;;4.43;1.75;;;22.00;99.90;;;20.84;68.48;97529.09;5050057;28;20033;-65
2021/06/19 05:50:46;;;;;;;8.32;1.77;;;22.10;99.90;;;21.23;67.38;97513.44;5044593;28;20088;-65
2021/06/19 05:53:33;;;;;;;5.90;1.85;;;22.20;99.90;;;21.48;66.70;97509.50;5047224;28;20087;-64
2021/06/19 05:56:21;;;;;;;9.68;2.33;;;22.30;99.90;;;21.80;65.85;97517.22;5050543;28;20073;-65
2021/06/19 05:59:08;;;;;;;7.45;1.83;;;22.50;99.90;;;21.45;66.74;97518.53;5037261;28;20041;-65
2021/06/19 06:01:55;;;;;;;7.72;1.92;;;22.70;99.90;;;21.81;65.25;97513.63;5035484;28;20037;-64
2021/06/19 06:04:44;;;;;;;8.43;2.35;;;22.80;99.90;;;21.65;65.95;97510.66;5052898;28;20041;-65
2021/06/19 06:07:31;;;;;;;5.88;2.10;;;22.70;99.90;;;21.47;66.38;97511.31;5051045;28;20049;-65
2021/06/19 06:10:18;;;;;;;7.32;2.20;;;22.70;99.90;;;22.28;64.85;97512.94;5047745;28;20037;-65
2021/06/19 06:13:08;;;;;;;4.65;2.03;;;23.00;99.90;;;22.84;63.73;97514.81;5048806;28;20029;-65
2021/06/19 06:15:56;;;;;;;6.28;2.05;;;23.40;99.90;;;23.08;62.86;97510.84;5043789;28;20580;-65
2021/06/19 06:18:43;;;;;;;4.40;1.58;;;23.80;99.90;;;23.30;61.72;97517.59;5044773;28;20044;-65
2021/06/19 06:21:31;;;;;;;3.30;1.48;;;24.00;99.90;;;23.52;61.21;97511.06;5049351;28;20045;-65
2021/06/19 06:24:18;;;;;;;3.38;1.75;;;24.30;99.90;;;23.45;61.33;97512.66;5042351;28;20046;-65
2021/06/19 06:27:06;;;;;;;4.60;1.60;;;24.40;99.90;;;23.34;60.56;97524.25;5048218;28;20037;-65
2021/06/19 06:29:54;;;;;;;3.03;1.48;;;24.40;99.90;;;23.05;61.21;97527.84;5052539;28;20087;-66
2021/06/19 06:32:41;;;;;;;2.88;1.35;;;24.30;99.90;;;23.05;61.70;97530.50;5051021;28;20060;-65
2021/06/19 06:35:29;;;;;;;4.85;1.67;;;24.20;99.90;;;23.74;60.51;97528.34;5052264;28;20048;-65
2021/06/19 06:38:16;;;;;;;4.68;1.23;;;24.50;99.90;;;24.14;59.85;97525.31;5040359;28;20037;-65
2021/06/19 06:41:04;;;;;;;3.72;1.60;;;24.90;99.90;;;24.57;59.02;97530.84;5055194;28;20037;-65
2021/06/19 06:43:51;;;;;;;5.53;1.17;;;25.30;99.90;;;24.83;58.47;97528.16;5036982;28;20048;-65
2021/06/19 06:46:38;;;;;;;5.10;1.33;;;25.50;99.90;;;24.64;58.73;97529.22;5047013;28;20094;-65
2021/06/19 06:49:26;;;;;;;4.30;1.23;;;25.70;99.90;;;23.66;59.29;97534.41;5050960;28;20186;-66
2021/06/19 06:52:13;;;;;;;4.43;1.38;;;25.50;99.90;;;23.77;58.07;97530.75;5049921;28;20037;-65
2021/06/19 06:55:05;;;;;;;4.47;1.38;;;25.10;99.90;;;23.46;60.34;97536.31;5050874;28;20059;-65
2021/06/19 06:57:53;;;;;;;4.85;1.27;;;24.90;99.90;;;23.68;60.60;97531.59;5049322;28;20037;-65
2021/06/19 07:00:41;;;;;;;5.15;1.25;;;24.90;99.90;;;24.43;57.82;97526.88;5041383;28;20037;-66
2021/06/19 07:03:28;;;;;;;4.63;1.30;;;25.20;99.90;;;25.16;57.47;97517.75;5049309;28;20037;-65
2021/06/19 07:06:16;;;;;;;2.47;1.15;;;25.70;99.90;;;25.13;56.38;97523.38;5048942;28;20092;-66
2021/06/19 07:09:03;;;;;;;5.75;1.27;;;26.00;99.90;;;25.24;56.26;97526.59;5050872;28;20496;-66
2021/06/19 07:11:50;;;;;;;4.57;1.23;;;26.10;99.90;;;25.58;55.25;97528.41;5049427;28;20064;-66
2021/06/19 07:14:38;;;;;;;3.92;1.40;;;26.50;99.90;;;25.64;55.11;97534.91;5032865;28;20042;-66
2021/06/19 07:17:25;;;;;;;7.00;1.45;;;26.60;99.90;;;24.83;55.82;97534.31;5045077;28;20519;-66
2021/06/19 07:20:14;;;;;;;4.22;1.42;;;26.70;99.90;;;25.47;55.21;97539.31;5042615;28;20098;-66
2021/06/19 07:23:02;;;;;;;4.65;1.15;;;26.70;99.90;;;25.84;54.70;97532.78;5050906;28;20080;-66
2021/06/19 07:25:49;;;;;;;4.78;1.30;;;26.80;99.90;;;25.98;53.57;97547.31;5042712;28;20079;-66
2021/06/19 07:28:37;;;;;;;2.55;0.80;;;26.90;99.90;;;26.04;53.22;97549.31;5048981;28;20071;-65
2021/06/19 07:31:25;;;;;;;4.38;0.90;;;27.00;99.90;;;26.21;52.57;97540.38;5050207;28;20044;-66
2021/06/19 07:34:12;;;;;;;2.25;0.70;;;27.20;99.90;;;26.13;52.55;97543.00;5031273;28;20408;-66
2021/06/19 07:37:00;;;;;;;2.00;0.77;;;27.40;99.90;;;26.60;51.56;97549.56;5033198;28;20506;-66
2021/06/19 07:39:47;;;;;;;4.00;0.88;;;27.50;99.90;;;26.40;51.35;97544.53;5042170;28;20652;-66
2021/06/19 07:42:38;;;;;;;3.40;0.80;;;27.40;99.90;;;26.38;51.58;97543.03;5045523;28;20053;-66
2021/06/19 07:45:25;;;;;;;1.52;0.70;;;27.40;99.90;;;26.58;51.35;97538.25;5048663;28;20041;-66
2021/06/19 07:48:13;;;;;;;2.72;0.85;;;27.60;99.90;;;26.80;51.23;97544.69;5050474;28;20048;-66
2021/06/19 07:51:00;;;;;;;2.38;1.00;;;27.80;99.90;;;27.02;50.38;97541.31;5049064;28;20090;-66
2021/06/19 07:53:48;;;;;;;3.85;0.90;;;27.80;99.90;;;26.42;51.08;97533.72;5049897;28;20402;-65
2021/06/19 07:56:35;;;;;;;2.70;1.17;;;27.90;99.90;;;26.92;50.23;97525.53;5052472;28;20041;-66
2021/06/19 07:59:23;;;;;;;11.35;1.00;;;27.80;99.90;;;27.25;50.39;97535.31;5035948;28;20056;-64
2021/06/19 08:02:10;;;;;;;3.70;1.05;;;27.90;99.90;;;26.24;51.28;97528.56;5047984;28;20401;-65
2021/06/19 08:04:58;;;;;;;3.17;1.00;;;27.90;99.90;;;26.07;51.19;97527.72;5051301;28;20052;-65
2021/06/19 08:07:45;;;;;;;3.10;1.00;;;27.50;99.90;;;26.21;51.85;97520.94;5050774;28;20041;-65
2021/06/19 08:10:33;;;;;;;3.67;0.95;;;27.30;99.90;;;27.02;50.21;97521.84;5047599;28;20052;-65
2021/06/19 08:13:20;;;;;;;4.00;1.10;;;27.40;99.90;;;27.38;49.33;97513.44;5050797;28;20045;-66
2021/06/19 08:16:10;;;;;;;2.42;0.80;;;27.80;99.90;;;27.38;48.26;97513.44;5047359;28;20037;-66
2021/06/19 08:18:57;;;;;;;2.28;1.08;;;27.90;99.90;;;27.52;48.34;97513.53;5051311;28;20044;-66
2021/06/19 08:21:45;;;;;;;4.55;1.20;;;28.20;99.90;;;27.46;47.70;97508.06;5042917;28;20037;-66
2021/06/19 08:24:34;;;;;;;8.20;1.15;;;28.30;99.90;;;27.75;48.68;97510.06;5045758;28;20061;-67
2021/06/19 08:27:25;;;;;;;2.95;1.00;;;28.60;99.90;;;27.36;47.76;97502.94;5059232;28;20064;-66
2021/06/19 08:30:14;;;;;;;2.17;1.00;;;28.90;99.90;;;27.94;47.93;97495.50;5038644;28;20099;-66
2021/06/19 08:33:02;;;;;;;3.03;0.90;;;28.90;99.90;;;28.10;47.18;97497.19;5048122;28;20033;-66
2021/06/19 08:35:49;;;;;;;2.78;1.02;;;29.10;99.90;;;28.26;47.18;97486.44;5050750;28;20117;-66
2021/06/19 08:38:38;;;;;;;3.47;0.85;;;29.50;99.90;;;28.77;46.30;97486.63;5048459;28;20049;-67
2021/06/19 08:41:27;;;;;;;5.53;0.80;;;29.70;99.90;;;29.13;44.99;97483.28;5040226;28;20041;-67
2021/06/19 08:44:22;;;;;;;2.35;0.73;;;29.80;99.90;;;30.00;42.79;97471.75;5043585;28;20041;-65
2021/06/19 08:47:25;;;;;;;6.57;0.85;;;30.40;99.90;;;30.00;42.46;97468.25;5045277;28;20423;-67
2021/06/19 08:50:14;;;;;;;3.58;0.80;;;30.60;99.90;;;29.33;43.50;97469.31;5034188;28;20044;-66
2021/06/19 08:53:03;;;;;;;2.05;0.77;;;30.30;99.90;;;30.11;42.79;97466.91;5040223;28;20037;-67
2021/06/19 08:55:50;;;;;;;4.35;1.17;;;30.90;99.90;;;31.11;39.45;97467.66;5045757;28;20037;-67
2021/06/19 08:58:37;;;;;;;2.50;1.05;;;31.40;98.40;;;29.46;40.40;97460.63;5033329;28;20049;-67
2021/06/19 09:01:25;;;;;;;4.07;1.00;;;31.40;97.50;;;31.19;37.33;97462.13;5045303;28;20045;-66
2021/06/19 09:04:24;;;;;;;5.00;1.15;;;30.90;97.90;;;29.77;39.79;97453.19;5032809;28;20037;-67
2021/06/19 09:07:53;;;;;;;4.22;1.10;;;30.90;98.00;;;30.23;39.74;97451.97;5044887;28;20056;-66
2021/06/19 09:10:40;;;;;;;8.63;1.35;;;30.60;98.10;;;31.85;37.22;97457.00;5044050;28;20040;-66
2021/06/19 09:13:27;;;;;;;5.28;0.90;;;30.60;98.90;;;29.47;41.20;97454.25;5049312;28;20175;-66
2021/06/19 09:16:22;;;;;;;5.90;0.90;;;31.00;97.90;;;31.02;38.89;97440.19;5049338;28;20532;-66
2021/06/19 09:19:35;;;;;;;3.53;1.25;;;31.10;98.10;;;32.89;35.70;97430.56;5040086;28;20453;-66
2021/06/19 09:22:23;;;;;;;5.90;1.15;;;31.40;97.80;;;31.37;37.67;97429.41;5017514;28;20089;-66
2021/06/19 09:25:14;;;;;;;6.50;1.08;;;31.50;97.90;;;31.76;36.22;97411.78;5045119;28;20423;-66
2021/06/19 09:28:04;;;;;;;9.00;1.20;;;31.10;97.50;;;30.40;37.80;97410.53;5031421;28;20045;-66
2021/06/19 09:30:52;;;;;;;4.22;1.15;;;31.10;97.20;;;31.73;35.78;97404.16;5032547;28;20029;-66
2021/06/19 09:33:40;;;;;;;7.03;1.30;;;31.20;97.00;;;31.24;37.01;97409.53;5048016;28;20033;-66
2021/06/19 09:36:45;;;;;;;7.05;1.27;;;31.10;97.20;;;31.58;35.46;97393.59;5057508;28;20037;-66
2021/06/19 09:39:35;;;;;;;5.72;1.30;;;31.60;96.50;;;32.94;33.64;97384.25;5068102;28;20043;-65
2021/06/19 09:42:24;;;;;;;5.32;1.40;;;31.10;96.80;;;33.31;32.63;97379.97;5040776;28;20413;-66
2021/06/19 09:45:23;;;;;;;3.80;1.20;;;31.50;96.40;;;33.22;34.40;97379.38;5046722;28;20041;-66
2021/06/19 09:48:45;;;;;;;10.02;2.42;;;32.30;96.60;;;34.97;32.30;97384.00;5052039;28;20033;-66
2021/06/19 09:51:35;;;;;;;6.88;1.30;;;33.50;96.40;;;33.78;32.21;97377.84;5020714;28;20055;-66
2021/06/19 09:54:23;;;;;;;6.57;1.63;;;33.50;95.10;;;31.64;35.09;97371.31;5035264;28;20037;-66
2021/06/19 09:57:18;;;;;;;7.47;1.33;;;33.00;94.40;;;33.44;33.81;97371.00;5040169;28;20054;-66
2021/06/19 10:00:12;;;;;;;10.05;1.83;;;32.70;95.40;;;34.83;32.24;97370.88;5050682;28;20068;-64
2021/06/19 10:03:04;;;;;;;12.40;1.98;;;33.10;96.00;;;34.38;31.69;97365.75;5043830;28;20056;-64
2021/06/19 10:05:55;;;;;;;7.63;1.70;;;33.60;94.50;;;34.84;31.63;97361.75;5051754;28;20059;-64
2021/06/19 10:08:46;;;;;;;8.95;1.38;;;34.10;94.40;;;35.05;29.78;97372.06;5037918;28;20045;-67
2021/06/19 10:11:34;;;;;;;;;;;34.20;93.20;;;35.37;29.36;97366.47;5051860;28;20080;-66
2021/06/19 10:14:24;;;;;;;6.60;1.48;;;34.70;92.80;;;35.75;30.38;97359.94;5054029;28;20162;-65
2021/06/19 10:17:16;;;;;;;7.40;1.30;;;34.90;93.80;;;36.17;29.20;97359.88;5037120;28;20041;-66
2021/06/19 10:20:09;;;;;;;3.70;1.10;;;35.40;92.90;;;37.01;28.39;97360.38;5051428;28;20049;-66
2021/06/19 10:22:57;;;;;;;5.63;1.75;;;35.50;92.90;;;35.86;29.00;97359.13;5052442;28;20051;-65
2021/06/19 10:25:49;;;;;;;6.00;1.23;;;35.40;91.90;;;35.44;30.22;97364.50;5045799;28;20088;-65
2021/06/19 10:28:48;;;;;;;8.13;1.80;;;35.10;92.50;;;35.08;29.29;97357.28;5051859;28;20049;-64
2021/06/19 10:31:52;;;;;;;6.32;1.52;;;35.00;91.20;;;35.87;30.23;97368.06;5032589;28;20069;-64
2021/06/19 10:34:52;;;;;;;6.72;1.35;;;35.10;92.70;;;36.44;28.88;97361.06;5035716;28;20045;-66
2021/06/19 10:37:40;;;;;;;4.10;1.50;;;35.50;91.90;;;33.03;33.20;97370.34;5043627;28;20520;-66
2021/06/19 10:40:28;;;;;;;7.53;2.03;;;35.10;91.00;;;31.35;35.79;97351.00;5018324;28;20524;-66
2021/06/19 10:43:18;;;;;;;7.60;1.67;;;34.50;91.00;;;33.83;32.01;97350.25;5048884;28;20536;-66
2021/06/19 10:46:34;;;;;;;4.43;1.40;;;34.30;91.60;;;35.03;31.90;97349.88;5048394;28;20439;-66
2021/06/19 10:49:22;;;;;;;12.20;1.95;;;34.60;92.60;;;34.02;30.84;97351.94;5052859;28;20504;-66
2021/06/19 10:52:27;;;;;;;4.40;1.58;;;34.30;91.00;;;34.56;31.34;97347.72;5050949;28;20052;-66
2021/06/19 10:55:14;;;;;;;6.28;1.50;;;34.70;91.60;;;34.40;31.19;97348.31;5040284;28;20038;-66
2021/06/19 10:58:16;;;;;;;5.78;1.50;;;34.70;91.40;;;34.55;31.38;97337.16;5044423;28;20033;-65
2021/06/19 11:01:05;;;;;;;8.68;2.08;;;34.40;91.70;;;34.65;29.79;97334.81;5036740;28;20103;-66
2021/06/19 11:03:56;;;;;;;6.03;1.88;;;34.30;90.60;;;35.69;29.75;97328.47;5045531;28;20045;-66
2021/06/19 11:06:44;;;;;;;4.35;1.30;;;35.30;91.30;;;35.78;29.47;97335.16;5050459;28;20061;-66
2021/06/19 11:09:41;;;;;;;8.70;1.77;;;35.30;90.80;;;33.38;33.35;97331.50;5034516;28;20421;-66
2021/06/19 11:12:32;;;;;;;8.93;2.35;;;34.70;91.00;;;33.26;32.90;97342.94;5031712;28;20046;-65
2021/06/19 11:15:33;;;;;;;;;;;34.20;91.20;;;34.42;32.19;97338.13;5032290;28;20041;-65
2021/06/19 11:18:49;;;;;;;5.22;1.92;;;34.20;91.60;;;35.05;30.11;97320.81;5035173;28;19921;-65
2021/06/19 11:21:38;;;;;;;11.48;2.00;;;34.80;90.70;;;36.07;29.67;97321.81;5047565;28;20044;-65
2021/06/19 11:24:25;;;;;;;7.93;2.45;;;35.40;90.90;;;36.67;29.19;97326.16;5045049;28;20075;-66
2021/06/19 11:27:12;;;;;;;9.73;1.80;;;35.90;91.00;;;34.42;30.91;97327.38;5020485;28;20049;-64
2021/06/19 11:30:00;;;;;;;14.27;2.88;;;35.90;89.30;;;36.67;27.66;97313.44;5041933;28;20038;-66
2021/06/19 11:32:47;;;;;;;6.72;1.98;;;35.90;89.20;;;36.88;27.05;97316.56;5045027;28;20107;-65
2021/06/19 11:35:34;;;;;;;8.50;2.58;;;36.30;88.40;;;33.57;32.07;97319.75;5048633;28;20067;-66
2021/06/19 11:38:22;;;;;;;7.82;2.17;;;35.90;88.30;;;32.81;33.91;97309.84;5050717;28;20412;-65
2021/06/19 11:41:12;;;;;;;7.45;2.25;;;35.20;89.00;;;35.83;30.38;97312.84;5049201;28;20433;-67
2021/06/19 11:44:00;;;;;;;11.38;2.50;;;35.40;90.60;;;35.15;30.66;97310.34;5049505;28;20068;-65
2021/06/19 11:46:51;;;;;;;9.10;1.80;;;35.60;89.70;;;36.12;28.80;97309.25;5042808;28;20056;-66
2021/06/19 11:49:49;;;;;;;14.25;2.33;;;36.00;90.10;;;35.06;29.28;97311.69;5027272;28;20056;-65
2021/06/19 11:52:36;;;;;;;14.95;2.45;;;36.30;86.30;;;33.77;32.26;97305.38;5038020;28;20084;-66